createdAt,value
2019-01-17T00:02:36.030Z,77.10
2019-01-17T00:06:54.655Z,77.30
2019-01-17T00:11:07.324Z,77.30
2019-01-17T00:15:22.880Z,76.70
2019-01-17T00:19:53.781Z,76.10
2019-01-17T00:24:18.757Z,76.50
2019-01-17T00:28:37.072Z,75.90
2019-01-17T00:32:58.423Z,75.50
2019-01-17T00:37:11.178Z,75.60
2019-01-17T00:41:29.478Z,75.50
2019-01-17T00:45:45.031Z,75.20
2019-01-17T00:50:06.346Z,75.10
2019-01-17T00:54:25.441Z,74.90
2019-01-17T00:58:46.934Z,74.50
2019-01-17T01:03:05.618Z,74.00
2019-01-17T01:07:18.245Z,73.60
2019-01-17T01:11:38.150Z,73.50
2019-01-17T01:16:08.829Z,73.30
2019-01-17T01:20:27.464Z,73.10
2019-01-17T01:24:48.852Z,73.20
2019-01-17T01:29:01.425Z,73.40
2019-01-17T01:33:22.923Z,73.40
2019-01-17T01:37:41.720Z,73.30
2019-01-17T01:42:00.325Z,72.90
2019-01-17T01:46:12.930Z,73.60
2019-01-17T01:50:28.244Z,73.50
2019-01-17T01:54:39.116Z,73.60
2019-01-17T01:58:50.043Z,73.20
2019-01-17T02:03:00.912Z,73.10
2019-01-17T02:07:12.026Z,73.20
2019-01-17T02:11:23.076Z,73.20
2019-01-17T02:15:34.096Z,72.90
2019-01-17T02:19:45.221Z,73.00
2019-01-17T02:23:56.274Z,73.30
2019-01-17T02:28:07.191Z,73.70
2019-01-17T02:32:18.493Z,74.20
2019-01-17T02:36:29.818Z,74.50
2019-01-17T02:40:40.647Z,74.60
2019-01-17T02:44:51.521Z,74.60
2019-01-17T02:49:02.503Z,74.50
2019-01-17T02:53:13.541Z,74.70
2019-01-17T02:57:24.601Z,74.70
2019-01-17T03:01:35.633Z,74.80
2019-01-17T03:05:46.673Z,74.80
2019-01-17T03:09:57.702Z,75.10
2019-01-17T03:14:08.760Z,75.30
2019-01-17T03:18:19.710Z,75.50
2019-01-17T03:22:31.677Z,75.40
2019-01-17T03:26:42.506Z,75.40
2019-01-17T03:30:53.418Z,75.80
2019-01-17T03:35:05.029Z,76.20
2019-01-17T03:39:15.846Z,76.40
2019-01-17T03:43:26.928Z,76.40
2019-01-17T03:47:38.953Z,77.00
2019-01-17T03:51:49.849Z,76.50
2019-01-17T03:56:00.827Z,76.40
2019-01-17T04:00:16.877Z,76.60
2019-01-17T04:04:28.163Z,76.40
2019-01-17T04:08:39.177Z,76.00
2019-01-17T04:12:50.152Z,75.90
2019-01-17T04:17:01.077Z,75.80
2019-01-17T04:21:12.022Z,75.60
2019-01-17T04:25:22.941Z,75.40
2019-01-17T04:29:33.963Z,75.40
2019-01-17T04:33:45.137Z,75.70
2019-01-17T04:37:56.161Z,75.80
2019-01-17T04:42:07.083Z,75.80
2019-01-17T04:46:18.010Z,76.00
2019-01-17T04:50:28.952Z,76.40
2019-01-17T04:54:40.077Z,76.40
2019-01-17T04:58:51.176Z,76.60
2019-01-17T05:03:02.363Z,76.50
2019-01-17T05:07:13.309Z,76.50
2019-01-17T05:11:24.228Z,76.40
2019-01-17T05:15:35.190Z,75.80
2019-01-17T05:19:46.447Z,75.60
2019-01-17T05:23:57.513Z,76.20
2019-01-17T05:28:08.511Z,75.20
2019-01-17T05:32:19.424Z,75.10
2019-01-17T05:36:31.269Z,75.00
2019-01-17T05:40:42.221Z,74.80
2019-01-17T05:44:53.188Z,74.80
2019-01-17T05:49:04.122Z,74.80
2019-01-17T05:53:15.057Z,74.50
2019-01-17T05:57:26.048Z,74.70
2019-01-17T06:01:37.005Z,74.80
2019-01-17T06:05:47.966Z,75.10
2019-01-17T06:09:58.869Z,75.70
2019-01-17T06:14:09.900Z,76.40
2019-01-17T06:18:20.813Z,76.70
2019-01-17T06:22:33.031Z,77.00
2019-01-17T06:26:44.013Z,77.00
2019-01-17T06:30:55.098Z,77.40
2019-01-17T06:35:07.654Z,77.40
2019-01-17T06:39:18.576Z,77.50
2019-01-17T06:43:30.400Z,77.70
2019-01-17T06:47:41.339Z,77.90
2019-01-17T06:51:52.365Z,79.00
2019-01-17T06:56:03.297Z,78.40
2019-01-17T07:00:17.572Z,78.80
2019-01-17T07:04:28.562Z,79.00
2019-01-17T07:08:40.117Z,79.10
2019-01-17T07:12:51.027Z,79.20
2019-01-17T07:17:01.968Z,79.30
2019-01-17T07:21:12.928Z,79.30
2019-01-17T07:25:23.854Z,79.20
2019-01-17T07:29:34.801Z,79.30
2019-01-17T07:33:45.772Z,79.30
2019-01-17T07:37:56.789Z,79.20
2019-01-17T07:42:06.801Z,79.20
2019-01-17T07:46:17.969Z,79.30
2019-01-17T07:50:28.957Z,79.40
2019-01-17T07:54:39.995Z,79.40
2019-01-17T07:58:50.977Z,79.50
2019-01-17T08:03:02.053Z,80.70
2019-01-17T08:07:12.923Z,80.10
2019-01-17T08:11:23.887Z,80.50
2019-01-17T08:15:34.809Z,81.20
2019-01-17T08:19:45.848Z,81.80
2019-01-17T08:23:56.821Z,82.00
2019-01-17T08:28:08.010Z,80.80
2019-01-17T08:32:18.971Z,80.70
2019-01-17T08:36:30.070Z,80.60
2019-01-17T08:40:41.408Z,80.40
2019-01-17T08:44:52.250Z,80.70
2019-01-17T08:49:03.144Z,80.40
2019-01-17T08:53:14.055Z,80.40
2019-01-17T08:57:25.084Z,80.50
2019-01-17T09:01:36.017Z,80.30
2019-01-17T09:05:46.944Z,80.10
2019-01-17T09:09:58.098Z,80.20
2019-01-17T09:14:09.046Z,80.00
2019-01-17T09:18:20.042Z,80.00
2019-01-17T09:22:32.460Z,80.20
2019-01-17T09:26:43.385Z,80.20
2019-01-17T09:30:54.359Z,80.40
2019-01-17T09:35:08.432Z,80.40
2019-01-17T09:39:19.533Z,80.40
2019-01-17T09:43:30.668Z,80.60
2019-01-17T09:47:42.321Z,80.60
2019-01-17T09:51:53.365Z,80.90
2019-01-17T09:56:04.371Z,80.70
2019-01-17T10:00:26.575Z,81.10
2019-01-17T10:04:37.486Z,81.20
2019-01-17T10:08:48.399Z,81.20
2019-01-17T10:12:59.394Z,81.30
2019-01-17T10:17:14.530Z,81.20
2019-01-17T10:21:40.313Z,81.20
2019-01-17T10:25:57.174Z,81.20
2019-01-17T10:30:14.737Z,81.50
2019-01-17T10:34:37.909Z,81.50
2019-01-17T10:39:09.598Z,81.30
2019-01-17T10:43:36.460Z,81.00
2019-01-17T10:48:02.799Z,80.20
2019-01-17T10:52:44.042Z,80.10
2019-01-17T10:57:09.936Z,79.40
2019-01-17T11:01:27.133Z,79.20
2019-01-17T11:05:53.364Z,79.10
2019-01-17T11:10:19.492Z,78.40
2019-01-17T11:14:36.441Z,78.60
2019-01-17T11:19:07.048Z,78.60
2019-01-17T11:23:24.186Z,78.10
2019-01-17T11:27:56.584Z,77.90
2019-01-17T11:32:10.821Z,77.00
2019-01-17T11:36:39.953Z,77.20
2019-01-17T11:40:54.112Z,76.90
2019-01-17T11:45:20.432Z,76.60
2019-01-17T11:49:55.338Z,76.60
2019-01-17T11:54:12.484Z,76.20
2019-01-17T11:58:38.376Z,75.80
2019-01-17T12:02:58.769Z,75.80
2019-01-17T12:07:14.942Z,75.40
2019-01-17T12:11:24.844Z,74.50
2019-01-17T12:15:36.515Z,73.80
2019-01-17T12:19:47.463Z,72.70
2019-01-17T12:23:58.430Z,73.20
2019-01-17T12:28:09.505Z,73.60
2019-01-17T12:32:20.419Z,73.50
2019-01-17T12:36:31.342Z,73.90
2019-01-17T12:40:42.161Z,73.90
2019-01-17T12:44:52.605Z,73.50
2019-01-17T12:49:03.554Z,73.70
2019-01-17T12:53:14.628Z,73.50
2019-01-17T12:57:25.559Z,72.40
2019-01-17T13:01:37.082Z,70.70
2019-01-17T13:05:48.155Z,69.80
2019-01-17T13:09:59.237Z,69.30
2019-01-17T13:14:10.519Z,69.30
2019-01-17T13:18:21.865Z,68.20
2019-01-17T13:22:32.859Z,67.70
2019-01-17T13:26:44.775Z,68.90
2019-01-17T13:30:55.576Z,69.50
2019-01-17T13:35:06.452Z,70.20
2019-01-17T13:39:17.319Z,70.40
2019-01-17T13:43:28.360Z,71.10
2019-01-17T13:47:39.408Z,70.20
2019-01-17T13:51:50.396Z,70.60
2019-01-17T13:56:01.502Z,71.10
2019-01-17T14:00:25.147Z,71.90
2019-01-17T14:04:35.778Z,72.30
2019-01-17T14:08:46.954Z,72.80
2019-01-17T14:12:57.916Z,73.00
2019-01-17T14:17:08.933Z,73.20
2019-01-17T14:21:25.472Z,73.50
2019-01-17T14:25:32.642Z,72.80
2019-01-17T14:29:43.687Z,73.10
2019-01-17T14:33:54.663Z,73.30
2019-01-17T14:38:05.743Z,73.80
2019-01-17T14:42:16.731Z,72.90
2019-01-17T14:46:27.676Z,72.80
2019-01-17T14:50:38.999Z,72.50
2019-01-17T14:54:49.904Z,72.60
2019-01-17T14:59:00.809Z,72.90
2019-01-17T15:03:11.800Z,73.50
2019-01-17T15:07:23.295Z,74.70
2019-01-17T15:11:35.264Z,74.00
2019-01-17T15:15:47.665Z,74.50
2019-01-17T15:19:59.132Z,75.10
2019-01-17T15:24:10.307Z,75.70
2019-01-17T15:28:21.277Z,76.10
2019-01-17T15:32:35.015Z,76.40
2019-01-17T15:36:46.441Z,76.40
2019-01-17T15:40:58.657Z,76.20
2019-01-17T15:45:10.798Z,76.10
2019-01-17T15:49:21.711Z,75.90
2019-01-17T15:53:32.695Z,75.40
2019-01-17T15:57:43.626Z,75.50
2019-01-17T16:01:54.661Z,75.30
2019-01-17T16:06:05.603Z,75.50
2019-01-17T16:10:16.905Z,75.40
2019-01-17T16:14:28.197Z,75.40
2019-01-17T16:18:40.058Z,75.30
2019-01-17T16:22:51.017Z,75.30
2019-01-17T16:27:02.272Z,75.80
2019-01-17T16:31:13.175Z,76.40
2019-01-17T16:35:24.094Z,77.20
2019-01-17T16:39:35.531Z,77.70
2019-01-17T16:43:47.875Z,78.00
2019-01-17T16:47:59.133Z,78.30
2019-01-17T16:52:10.060Z,78.10
2019-01-17T16:56:21.081Z,77.60
2019-01-17T17:00:39.995Z,77.40
2019-01-17T17:04:50.910Z,76.60
2019-01-17T17:09:02.096Z,76.20
2019-01-17T17:13:13.081Z,75.90
2019-01-17T17:17:24.242Z,75.50
2019-01-17T17:21:35.299Z,76.30
2019-01-17T17:25:47.147Z,82.40
2019-01-17T17:29:58.986Z,86.70
2019-01-17T17:34:09.909Z,89.80
2019-01-17T17:38:20.865Z,90.60
2019-01-17T17:42:31.830Z,90.80
2019-01-17T17:46:42.865Z,91.00
2019-01-17T17:50:53.740Z,91.00
2019-01-17T17:55:07.413Z,90.90
2019-01-17T17:59:18.369Z,90.90
2019-01-17T18:03:29.574Z,91.00
2019-01-17T18:07:40.981Z,91.00
2019-01-17T18:11:51.929Z,91.00
2019-01-17T18:16:03.056Z,90.80
2019-01-17T18:20:15.204Z,90.80
2019-01-17T18:24:26.635Z,90.40
2019-01-17T18:28:39.802Z,90.00
2019-01-17T18:32:51.299Z,89.50
2019-01-17T18:37:03.103Z,90.20
2019-01-17T18:41:14.157Z,90.10
2019-01-17T18:45:26.346Z,89.60
2019-01-17T18:49:39.231Z,89.30
2019-01-17T18:53:50.353Z,88.90
2019-01-17T18:58:01.305Z,88.80
2019-01-17T19:02:12.376Z,88.80
2019-01-17T19:06:23.283Z,88.80
2019-01-17T19:10:34.157Z,88.70
2019-01-17T19:14:45.086Z,88.50
2019-01-17T19:18:56.143Z,88.50
2019-01-17T19:23:07.127Z,88.30
2019-01-17T19:27:18.037Z,88.70
2019-01-17T19:31:29.126Z,88.60
2019-01-17T19:35:40.909Z,88.70
2019-01-17T19:39:52.069Z,88.70
2019-01-17T19:44:03.139Z,89.00
2019-01-17T19:48:14.421Z,88.50
2019-01-17T19:52:25.758Z,87.90
2019-01-17T19:56:37.068Z,87.80
2019-01-17T20:00:50.050Z,87.00
2019-01-17T20:05:01.056Z,86.90
2019-01-17T20:09:13.597Z,86.60
2019-01-17T20:13:24.524Z,86.90
2019-01-17T20:17:35.734Z,87.70
2019-01-17T20:21:46.857Z,86.70
2019-01-17T20:25:58.085Z,86.70
2019-01-17T20:30:16.440Z,86.60
2019-01-17T20:34:27.398Z,85.30
2019-01-17T20:38:40.471Z,85.40
2019-01-17T20:42:51.524Z,85.60
2019-01-17T20:47:02.447Z,86.00
2019-01-17T20:51:13.616Z,86.40
2019-01-17T20:55:24.522Z,84.90
2019-01-17T20:59:35.814Z,84.50
2019-01-17T21:03:46.754Z,84.50
2019-01-17T21:07:57.791Z,84.80
2019-01-17T21:12:08.763Z,85.10
2019-01-17T21:16:19.800Z,84.40
2019-01-17T21:20:30.767Z,84.40
2019-01-17T21:24:42.740Z,84.50
2019-01-17T21:28:53.670Z,85.00
2019-01-17T21:33:06.967Z,84.20
2019-01-17T21:37:17.535Z,83.40
2019-01-17T21:41:28.690Z,82.90
2019-01-17T21:45:40.949Z,83.50
2019-01-17T21:49:51.937Z,81.80
2019-01-17T21:54:02.887Z,81.50
2019-01-17T21:58:14.052Z,80.90
2019-01-17T22:02:25.223Z,80.70
2019-01-17T22:06:36.040Z,80.40
2019-01-17T22:10:46.863Z,80.50
2019-01-17T22:14:57.685Z,80.60
2019-01-17T22:19:08.555Z,80.70
2019-01-17T22:23:19.447Z,80.60
2019-01-17T22:27:30.365Z,80.90
2019-01-17T22:31:44.287Z,81.00
2019-01-17T22:35:55.217Z,81.30
2019-01-17T22:40:09.557Z,81.40
2019-01-17T22:44:20.667Z,81.50
2019-01-17T22:48:31.615Z,82.20
2019-01-17T22:52:43.965Z,81.30
2019-01-17T22:56:54.914Z,80.60
2019-01-17T23:01:09.418Z,80.70
2019-01-17T23:05:20.451Z,80.70
2019-01-17T23:09:31.402Z,81.00
2019-01-17T23:13:44.290Z,80.80
2019-01-17T23:17:55.344Z,81.00
2019-01-17T23:22:06.432Z,81.20
2019-01-17T23:26:19.590Z,80.70
2019-01-17T23:30:30.930Z,80.70
2019-01-17T23:34:42.702Z,80.60
2019-01-17T23:38:53.658Z,80.70
2019-01-17T23:43:04.800Z,80.90
2019-01-17T23:47:15.921Z,81.00
2019-01-17T23:51:26.906Z,81.00
2019-01-17T23:55:39.397Z,81.20
2019-01-17T23:59:51.469Z,81.30
